Time;durP1;ratioP1;P1;durP2;ratioP2;P2;SDS_P1;SDS_P2;PMS_P1;PMS_P2;Temp;Humidity;BMP_temperature;BMP_pressure;BME280_temperature;BME280_humidity;BME280_pressure;Samples;Min_cycle;Max_cycle;Signal;HPM_P1;HPM_P2
2022/10/24 00:00:57;;;;;;;5.30;2.80;;;;;;;10.49;80.39;99063.54;102249;1294;76417;-24
2022/10/24 00:03:25;;;;;;;4.70;3.10;;;;;;;10.84;80.14;99067.98;102019;1303;76774;-24
2022/10/24 00:05:52;;;;;;;5.90;3.30;;;;;;;11.18;79.10;99068.30;102130;1292;73868;-24
2022/10/24 00:08:19;;;;;;;6.60;3.30;;;;;;;11.13;78.68;99066.80;102148;1291;61766;-24
2022/10/24 00:10:47;;;;;;;5.80;3.50;;;;;;;10.85;79.09;99068.77;102293;1299;61799;-24
2022/10/24 00:13:15;;;;;;;5.90;3.80;;;;;;;10.60;79.62;99065.05;102327;1293;76024;-24
2022/10/24 00:15:44;;;;;;;7.70;2.50;;;;;;;10.37;80.50;99060.42;102186;1302;76779;-24
2022/10/24 00:18:11;;;;;;;4.20;2.90;;;;;;;10.65;80.40;99063.23;102024;1301;75123;-24
2022/10/24 00:20:39;;;;;;;4.30;3.30;;;;;;;10.96;78.75;99068.04;102397;1302;61846;-24
2022/10/24 00:23:07;;;;;;;5.40;3.40;;;;;;;10.89;78.51;99071.58;102104;1301;62849;-24
2022/10/24 00:25:35;;;;;;;6.50;3.70;;;;;;;10.64;78.76;99065.58;102207;1299;76426;-24
2022/10/24 00:28:02;;;;;;;4.90;3.20;;;;;;;10.35;79.93;99065.52;102322;1298;75636;-24
2022/10/24 00:30:30;;;;;;;7.00;4.00;;;;;;;10.03;80.83;99070.23;102263;1297;74330;-24
2022/10/24 00:32:57;;;;;;;3.90;2.40;;;;;;;9.82;82.08;99068.09;102304;1294;63498;-24
2022/10/24 00:35:25;;;;;;;3.90;2.50;;;;;;;10.23;81.19;99064.33;102250;1299;62749;-24
2022/10/24 00:37:52;;;;;;;6.60;3.30;;;;;;;10.61;79.69;99065.52;102233;1300;76336;-24
2022/10/24 00:40:20;;;;;;;5.10;3.80;;;;;;;10.63;79.07;99066.75;102139;1297;76691;-24
2022/10/24 00:42:47;;;;;;;7.30;4.00;;;;;;;10.44;79.62;99067.02;102132;1299;73971;-24
2022/10/24 00:45:36;;;;;;;4.80;3.50;;;;;;;10.20;80.76;99071.02;102308;1300;61721;-24
2022/10/24 00:48:13;;;;;;;6.70;3.80;;;;;;;9.96;81.70;99067.83;102174;1294;62623;-24
2022/10/24 00:50:40;;;;;;;4.40;2.30;;;;;;;9.86;82.32;99062.53;102188;1299;76375;-24
2022/10/24 00:53:08;;;;;;;5.50;3.10;;;;;;;10.44;81.28;99054.70;102291;1302;75670;-24
2022/10/24 00:55:35;;;;;;;6.10;3.00;;;;;;;10.88;79.55;99055.69;102011;1297;75187;-24
2022/10/24 00:58:04;;;;;;;5.60;3.50;;;;;;;10.80;78.90;99055.96;102064;1301;62623;-24
2022/10/24 01:00:32;;;;;;;5.60;4.10;;;;;;;10.56;79.95;99059.14;102138;1293;61766;-24
2022/10/24 01:03:00;;;;;;;5.70;3.80;;;;;;;10.34;80.76;99059.10;102276;1293;76178;-24
2022/10/24 01:05:31;;;;;;;10.70;3.50;;;;;;;10.17;81.85;99058.73;102264;1293;75469;-24
2022/10/24 01:08:08;;;;;;;5.40;3.50;;;;;;;10.55;81.24;99054.16;102006;1297;75366;-24
2022/10/24 01:11:17;;;;;;;8.30;3.50;;;;;;;10.93;79.59;99053.34;102246;1294;63010;-24
2022/10/24 01:13:57;;;;;;;7.90;3.80;;;;;;;10.83;78.95;99056.25;102086;1299;62278;-24
2022/10/24 01:16:34;;;;;;;8.60;4.50;;;;;;;10.52;80.02;99052.14;102255;1302;76351;-24
2022/10/24 01:19:39;;;;;;;6.50;4.30;;;;;;;10.22;81.27;99050.14;101939;1304;76752;-24
2022/10/24 01:22:39;;;;;;;4.30;2.90;;;;;;;10.04;81.76;99053.02;102319;1298;74703;-24
2022/10/24 01:25:14;;;;;;;5.00;3.60;;;;;;;10.63;80.16;99051.09;102140;1299;61650;-25
2022/10/24 01:28:04;;;;;;;6.20;4.00;;;;;;;10.87;78.82;99053.45;101965;1304;62787;-24
2022/10/24 01:30:36;;;;;;;9.10;4.00;;;;;;;10.68;78.70;99052.29;102030;1299;76514;-24
2022/10/24 01:33:14;;;;;;;6.20;4.20;;;;;;;10.43;79.89;99054.39;102000;1294;76637;-24
2022/10/24 01:35:43;;;;;;;8.80;4.20;;;;;;;10.19;80.27;99048.15;101954;1296;75216;-24
2022/10/24 01:38:22;;;;;;;6.90;2.90;;;;;;;10.01;81.27;99047.34;102214;1299;63186;-24
2022/10/24 01:41:09;;;;;;;6.40;3.20;;;;;;;10.40;80.89;99047.86;102164;1299;61875;-24
2022/10/24 01:43:45;;;;;;;5.90;3.90;;;;;;;10.69;79.79;99046.77;102283;1299;76551;-24
2022/10/24 01:46:17;;;;;;;6.90;4.30;;;;;;;10.58;79.82;99047.12;102096;1302;76871;-24
2022/10/24 01:48:46;;;;;;;5.50;3.80;;;;;;;10.36;80.57;99045.81;101919;1305;75126;-24
2022/10/24 01:51:14;;;;;;;7.10;4.40;;;;;;;10.11;81.61;99050.32;102020;1304;62707;-24
2022/10/24 01:53:42;;;;;;;5.10;2.60;;;;;;;9.95;82.37;99048.81;102025;1299;61596;-24
2022/10/24 01:56:10;;;;;;;6.00;3.10;;;;;;;10.36;81.91;99051.30;102056;1299;74777;-24
2022/10/24 01:58:37;;;;;;;8.00;4.00;;;;;;;10.73;80.33;99053.28;102259;1300;76163;-24
2022/10/24 02:01:09;;;;;;;4.50;3.60;;;;;;;10.71;79.88;99049.56;102256;1291;75129;-24
2022/10/24 02:03:41;;;;;;;4.70;3.70;;;;;;;10.55;80.38;99049.13;102039;1291;61561;-24
2022/10/24 02:06:19;;;;;;;4.70;3.70;;;;;;;10.32;81.02;99047.09;102144;1302;62994;-24
2022/10/24 02:08:49;;;;;;;4.10;2.70;;;;;;;10.15;81.80;99049.70;102275;1300;76287;-24
2022/10/24 02:11:17;;;;;;;4.00;3.10;;;;;;;10.54;81.31;99048.52;101940;1299;76687;-24
2022/10/24 02:14:09;;;;;;;8.00;3.80;;;;;;;10.96;79.60;99050.52;102287;1297;73985;-24
2022/10/24 02:16:36;;;;;;;6.50;3.70;;;;;;;10.92;79.57;99055.91;102004;1297;61494;-24
2022/10/24 02:19:04;;;;;;;6.60;4.20;;;;;;;10.68;79.91;99054.02;101884;1294;62871;-24
2022/10/24 02:21:50;;;;;;;7.40;4.80;;;;;;;10.43;80.95;99051.00;101924;1296;75341;-24
2022/10/24 02:24:21;;;;;;;7.40;3.10;;;;;;;10.25;81.98;99049.55;102176;1299;75766;-24
2022/10/24 02:27:00;;;;;;;6.70;3.60;;;;;;;10.72;81.39;99052.14;101954;1304;75244;-24
2022/10/24 02:29:43;;;;;;;10.20;3.90;;;;;;;11.11;79.95;99058.81;102007;1288;61888;-24
2022/10/24 02:32:17;;;;;;;6.40;3.80;;;;;;;11.02;79.62;99061.81;102154;1302;62791;-24
2022/10/24 02:34:44;;;;;;;6.60;4.20;;;;;;;10.82;79.94;99063.44;101910;1304;74475;-24
2022/10/24 02:37:12;;;;;;;6.00;4.00;;;;;;;10.54;80.96;99060.67;102190;1302;77081;-24
2022/10/24 02:39:40;;;;;;;4.10;3.30;;;;;;;10.32;81.68;99056.16;102147;1299;75677;-24
2022/10/24 02:42:07;;;;;;;6.80;3.40;;;;;;;10.64;81.11;99057.80;102065;1294;61057;-24
2022/10/24 02:44:34;;;;;;;6.80;3.60;;;;;;;10.95;79.97;99061.68;102137;1299;61843;-24
2022/10/24 02:47:03;;;;;;;7.30;3.70;;;;;;;10.85;79.82;99058.65;101939;1301;75310;-24
2022/10/24 02:49:30;;;;;;;6.10;4.20;;;;;;;10.63;80.01;99058.73;102047;1304;76488;-24
2022/10/24 02:51:58;;;;;;;9.00;4.50;;;;;;;10.36;81.07;99057.44;101937;1302;75117;-24
2022/10/24 02:54:26;;;;;;;6.50;2.70;;;;;;;10.15;81.75;99064.63;101937;1295;64379;-24
2022/10/24 02:56:55;;;;;;;5.70;3.40;;;;;;;10.43;81.91;99065.51;102217;1294;61597;-24
2022/10/24 02:59:23;;;;;;;7.30;3.80;;;;;;;10.90;80.21;99069.45;102055;1299;76710;-23
2022/10/24 03:01:50;;;;;;;6.70;4.20;;;;;;;10.88;79.69;99069.92;102232;1298;75694;-23
2022/10/24 03:04:18;;;;;;;5.20;3.60;;;;;;;10.63;79.82;99069.02;102209;1297;75375;-24
2022/10/24 03:06:45;;;;;;;6.50;4.10;;;;;;;10.33;80.90;99072.38;102068;1297;61449;-23
2022/10/24 03:09:13;;;;;;;5.20;4.50;;;;;;;10.07;81.70;99069.73;102182;1298;62922;-23
2022/10/24 03:11:40;;;;;;;6.60;3.00;;;;;;;9.89;82.51;99073.06;102243;1302;75358;-24
2022/10/24 03:14:07;;;;;;;4.80;3.10;;;;;;;10.33;82.26;99077.82;102120;1294;75415;-24
2022/10/24 03:16:35;;;;;;;9.80;3.80;;;;;;;10.79;79.81;99075.86;102233;1297;74098;-23
2022/10/24 03:19:02;;;;;;;7.30;4.80;;;;;;;10.76;79.24;99071.59;102218;1297;62879;-23
2022/10/24 03:21:30;;;;;;;5.70;4.00;;;;;;;10.50;79.64;99068.66;101975;1301;62000;-23
2022/10/24 03:23:57;;;;;;;10.10;4.60;;;;;;;10.22;80.50;99069.63;102153;1294;75403;-24
2022/10/24 03:26:25;;;;;;;9.80;4.90;;;;;;;9.91;81.23;99071.70;102242;1299;76727;-23
2022/10/24 03:28:52;;;;;;;5.30;3.50;;;;;;;9.63;82.44;99074.39;101942;1301;74957;-23
2022/10/24 03:31:20;;;;;;;6.20;4.00;;;;;;;9.98;82.12;99074.61;101952;1301;62892;-23
2022/10/24 03:33:47;;;;;;;11.30;4.20;;;;;;;10.44;80.21;99064.27;102132;1292;61710;-23
2022/10/24 03:36:14;;;;;;;11.30;4.70;;;;;;;10.45;79.78;99060.01;102143;1302;76582;-23
2022/10/24 03:38:42;;;;;;;6.90;4.40;;;;;;;10.26;80.25;99061.45;101931;1290;76740;-24
2022/10/24 03:41:10;;;;;;;6.00;4.60;;;;;;;10.01;80.52;99058.94;102104;1300;75427;-23
2022/10/24 03:43:37;;;;;;;9.40;4.90;;;;;;;9.75;80.90;99061.16;101961;1299;61982;-24
2022/10/24 03:46:05;;;;;;;4.50;3.30;;;;;;;9.49;81.48;99060.88;101986;1301;62845;-24
2022/10/24 03:48:32;;;;;;;6.10;3.70;;;;;;;9.83;81.98;99060.48;102251;1286;76052;-24
2022/10/24 03:51:00;;;;;;;9.40;4.10;;;;;;;10.33;80.47;99058.34;102002;1302;76766;-24
2022/10/24 03:53:27;;;;;;;5.60;3.70;;;;;;;10.36;79.91;99060.52;101909;1302;75121;-24
2022/10/24 03:55:56;;;;;;;6.60;4.10;;;;;;;10.09;79.73;99062.23;102183;1298;62719;-24
2022/10/24 03:58:23;;;;;;;6.60;4.80;;;;;;;9.78;80.56;99063.13;102210;1298;62737;-24
2022/10/24 04:00:51;;;;;;;7.20;5.30;;;;;;;9.50;81.13;99062.05;102010;1293;76517;-24
2022/10/24 04:03:18;;;;;;;5.70;3.50;;;;;;;9.24;82.20;99064.98;102216;1299;75453;-24
2022/10/24 04:05:46;;;;;;;9.00;4.10;;;;;;;9.60;82.45;99061.44;102103;1298;73584;-24
2022/10/24 04:08:13;;;;;;;8.80;4.70;;;;;;;10.08;81.29;99060.10;102035;1296;62855;-24
2022/10/24 04:10:40;;;;;;;11.30;4.70;;;;;;;10.10;80.66;99062.91;102292;1299;61615;-24
2022/10/24 04:13:08;;;;;;;6.60;4.40;;;;;;;9.88;80.86;99062.05;102010;1299;76362;-23
2022/10/24 04:15:35;;;;;;;8.40;5.00;;;;;;;9.61;81.17;99062.89;101997;1301;75746;-24
2022/10/24 04:18:03;;;;;;;7.00;5.10;;;;;;;9.35;82.12;99060.51;101924;1302;75036;-24
2022/10/24 04:20:30;;;;;;;8.40;4.20;;;;;;;9.16;82.95;99058.35;102003;1299;63290;-23
2022/10/24 04:22:57;;;;;;;4.90;3.30;;;;;;;9.56;82.57;99056.73;102257;1294;62072;-24
2022/10/24 04:25:29;;;;;;;5.30;4.20;;;;;;;10.08;81.41;99059.80;102234;1297;75209;-24
2022/10/24 04:27:56;;;;;;;6.40;4.60;;;;;;;10.11;80.75;99068.73;102222;1299;75673;-24
2022/10/24 04:30:23;;;;;;;5.80;4.20;;;;;;;9.92;81.03;99072.64;102221;1295;74916;-24
2022/10/24 04:32:50;;;;;;;7.80;4.70;;;;;;;9.69;80.96;99075.80;101923;1299;62574;-24
2022/10/24 04:35:17;;;;;;;7.70;4.50;;;;;;;9.44;81.97;99072.51;102068;1299;61667;-24
2022/10/24 04:37:44;;;;;;;6.50;3.60;;;;;;;9.27;82.33;99077.55;102292;1294;76287;-24
2022/10/24 04:40:10;;;;;;;8.10;3.90;;;;;;;9.72;82.54;99078.67;102216;1297;75752;-24
2022/10/24 04:42:38;;;;;;;8.80;4.90;;;;;;;10.19;81.39;99078.87;102264;1297;74118;-24
2022/10/24 04:45:06;;;;;;;7.10;4.50;;;;;;;10.20;80.73;99075.33;102266;1291;62969;-24
2022/10/24 04:47:33;;;;;;;5.50;4.30;;;;;;;10.03;80.81;99076.45;102002;1299;63039;-24
2022/10/24 04:50:00;;;;;;;9.50;4.80;;;;;;;9.82;81.31;99080.53;102171;1297;76334;-24
2022/10/24 04:52:27;;;;;;;7.20;3.40;;;;;;;9.62;82.04;99080.02;102171;1299;76544;-24
2022/10/24 04:54:54;;;;;;;9.70;4.90;;;;;;;10.02;82.25;99081.75;102208;1299;74248;-24
2022/10/24 04:57:21;;;;;;;9.00;4.90;;;;;;;10.42;80.69;99081.75;102136;1302;61689;-24
2022/10/24 04:59:48;;;;;;;9.40;4.40;;;;;;;10.43;80.37;99087.10;102301;1299;61777;-24
2022/10/24 05:02:15;;;;;;;8.20;5.20;;;;;;;10.25;80.57;99085.16;102086;1294;75083;-24
2022/10/24 05:04:42;;;;;;;7.20;4.90;;;;;;;10.03;81.27;99089.15;102304;1301;76683;-24
2022/10/24 05:07:09;;;;;;;5.00;3.70;;;;;;;9.83;82.16;99095.34;102242;1302;74927;-24
2022/10/24 05:09:36;;;;;;;5.30;3.60;;;;;;;10.23;81.71;99097.14;102284;1302;61963;-24
2022/10/24 05:12:03;;;;;;;8.60;4.90;;;;;;;10.72;80.28;99093.46;102300;1294;62877;-24
2022/10/24 05:14:30;;;;;;;6.70;4.50;;;;;;;10.73;79.57;99093.17;102245;1299;74127;-24
2022/10/24 05:16:57;;;;;;;10.00;5.00;;;;;;;10.59;79.90;99100.77;102356;1299;76807;-24
2022/10/24 05:19:24;;;;;;;9.20;5.30;;;;;;;10.41;79.83;99105.07;102291;1299;74466;-24
2022/10/24 05:21:51;;;;;;;7.40;5.30;;;;;;;10.22;80.27;99106.77;102337;1302;63322;-24
2022/10/24 05:24:18;;;;;;;5.00;3.30;;;;;;;10.07;80.84;99113.15;102188;1298;61776;-24
2022/10/24 05:26:45;;;;;;;4.60;3.30;;;;;;;10.49;80.51;99112.95;102251;1299;76475;-24
2022/10/24 05:29:12;;;;;;;5.80;4.10;;;;;;;11.01;79.13;99117.11;102164;1299;75451;-24
2022/10/24 05:31:39;;;;;;;5.70;4.30;;;;;;;11.07;78.60;99122.21;102192;1302;74185;-25
2022/10/24 05:34:06;;;;;;;7.40;4.30;;;;;;;10.90;78.92;99119.22;102233;1297;61892;-25
2022/10/24 05:36:33;;;;;;;7.20;4.90;;;;;;;10.68;79.44;99120.63;102334;1297;63007;-26
2022/10/24 05:38:59;;;;;;;8.20;4.70;;;;;;;10.49;80.30;99123.75;102211;1297;76398;-24
2022/10/24 05:41:26;;;;;;;7.30;4.20;;;;;;;10.33;80.41;99124.61;102271;1295;76001;-24
2022/10/24 05:43:53;;;;;;;6.90;4.60;;;;;;;10.74;80.21;99126.64;102187;1301;75134;-24
2022/10/24 05:46:20;;;;;;;6.90;4.10;;;;;;;11.07;79.12;99128.30;102148;1294;61558;-24
2022/10/24 05:48:47;;;;;;;6.40;4.80;;;;;;;11.07;78.99;99127.13;102256;1299;63074;-24
2022/10/24 05:51:14;;;;;;;6.50;5.00;;;;;;;10.93;79.08;99123.16;102189;1297;76017;-24
2022/10/24 05:53:41;;;;;;;7.10;4.90;;;;;;;10.72;79.44;99119.50;101902;1300;75596;-24
2022/10/24 05:56:09;;;;;;;8.10;5.10;;;;;;;10.50;79.83;99128.20;101903;1301;75206;-24
2022/10/24 05:58:36;;;;;;;5.10;4.00;;;;;;;10.34;80.80;99132.17;102176;1294;64509;-24
2022/10/24 06:01:03;;;;;;;5.50;3.50;;;;;;;10.79;80.35;99133.17;101944;1299;63018;-24
2022/10/24 06:03:30;;;;;;;7.90;4.90;;;;;;;11.31;79.05;99136.42;102150;1297;76201;-24
2022/10/24 06:06:02;;;;;;;9.20;4.90;;;;;;;11.38;78.09;99137.59;102120;1299;75644;-24
2022/10/24 06:08:29;;;;;;;7.60;5.10;;;;;;;11.18;78.34;99136.42;101963;1302;74953;-25
2022/10/24 06:10:56;;;;;;;7.70;5.30;;;;;;;10.98;78.47;99136.14;102123;1302;62512;-24
2022/10/24 06:13:23;;;;;;;8.10;5.10;;;;;;;10.73;79.37;99138.88;102055;1302;62851;-24
2022/10/24 06:15:50;;;;;;;9.20;4.70;;;;;;;10.70;79.98;99138.04;101928;1301;76309;-24
2022/10/24 06:18:17;;;;;;;10.70;7.80;;;;;;;11.19;79.49;99135.82;102188;1302;76800;-24
2022/10/24 06:20:44;;;;;;;17.80;8.70;;;;;;;11.32;78.26;99135.30;102199;1302;75163;-24
2022/10/24 06:23:11;;;;;;;10.90;5.80;;;;;;;11.19;78.51;99135.96;102112;1302;62350;-24
2022/10/24 06:25:41;;;;;;;7.40;5.20;;;;;;;11.14;79.14;99134.11;102236;1302;61969;-24
2022/10/24 06:28:08;;;;;;;10.20;5.50;;;;;;;11.12;78.96;99132.53;102121;1299;75220;-24
2022/10/24 06:30:35;;;;;;;4.10;3.60;;;;;;;11.08;79.38;99136.75;102130;1299;75542;-24
2022/10/24 06:33:03;;;;;;;6.70;3.60;;;;;;;11.58;78.73;99139.20;102149;1302;74886;-24
2022/10/24 06:35:30;;;;;;;9.30;4.70;;;;;;;12.20;77.18;99144.92;102169;1302;63323;-24
2022/10/24 06:37:57;;;;;;;6.50;4.50;;;;;;;12.31;75.84;99149.22;102130;1297;63099;-24
2022/10/24 06:40:24;;;;;;;7.20;4.90;;;;;;;12.21;76.18;99152.84;102269;1292;76346;-24
2022/10/24 06:42:50;;;;;;;10.20;6.20;;;;;;;12.01;76.72;99149.02;102273;1299;75563;-24
2022/10/24 06:45:20;;;;;;;8.00;5.80;;;;;;;11.80;77.62;99152.16;102251;1302;73885;-24
2022/10/24 06:47:47;;;;;;;10.00;6.10;;;;;;;11.60;78.20;99149.10;102045;1302;61593;-24
2022/10/24 06:50:19;;;;;;;5.60;3.40;;;;;;;11.50;79.44;99148.20;102225;1302;62825;-24
2022/10/24 06:52:46;;;;;;;9.20;5.30;;;;;;;12.06;78.09;99150.47;102219;1302;75328;-24
2022/10/24 06:55:14;;;;;;;10.90;5.90;;;;;;;12.48;76.17;99155.05;102155;1302;74653;-24
2022/10/24 06:57:40;;;;;;;8.40;5.70;;;;;;;12.47;75.75;99152.23;102233;1294;75178;-24
2022/10/24 07:00:09;;;;;;;8.30;5.50;;;;;;;12.32;76.44;99153.63;102189;1300;62565;-23
2022/10/24 07:02:36;;;;;;;7.80;5.90;;;;;;;12.27;77.33;99152.85;102038;1299;61821;-24
2022/10/24 07:05:03;;;;;;;8.90;6.50;;;;;;;12.19;77.19;99148.16;102121;1298;75605;-24
2022/10/24 07:07:30;;;;;;;7.60;5.20;;;;;;;12.10;78.36;99147.94;102168;1292;75427;-23
2022/10/24 07:09:58;;;;;;;8.50;5.80;;;;;;;12.52;77.47;99149.35;102035;1301;74793;-23
2022/10/24 07:12:25;;;;;;;10.90;6.60;;;;;;;12.85;75.60;99150.26;102312;1302;62887;-24
2022/10/24 07:14:52;;;;;;;8.40;6.40;;;;;;;12.76;75.73;99151.69;102354;1299;62796;-24
2022/10/24 07:17:19;;;;;;;11.20;7.20;;;;;;;12.49;76.58;99149.63;102057;1292;76237;-24
2022/10/24 07:19:53;;;;;;;11.90;7.40;;;;;;;12.24;77.22;99146.30;102120;1297;77086;-24
2022/10/24 07:22:20;;;;;;;12.50;6.70;;;;;;;11.92;78.96;99145.02;102096;1302;74134;-23
2022/10/24 07:24:52;;;;;;;8.80;5.20;;;;;;;11.79;79.72;99142.33;102300;1300;63353;-24
2022/10/24 07:27:20;;;;;;;8.00;5.10;;;;;;;12.23;79.01;99141.37;102028;1300;62734;-24
2022/10/24 07:29:47;;;;;;;8.40;5.60;;;;;;;12.65;77.08;99138.45;102079;1301;76393;-24
2022/10/24 07:32:14;;;;;;;10.40;5.80;;;;;;;12.61;76.26;99139.33;101951;1302;76909;-24
2022/10/24 07:34:41;;;;;;;10.20;5.40;;;;;;;12.45;76.80;99137.77;101994;1302;74242;-24
2022/10/24 07:37:08;;;;;;;12.00;6.90;;;;;;;12.21;77.77;99140.73;102224;1291;61625;-23
2022/10/24 07:39:36;;;;;;;12.00;6.80;;;;;;;12.06;79.02;99142.02;102131;1301;62874;-24
2022/10/24 07:42:03;;;;;;;8.80;5.20;;;;;;;11.99;79.30;99140.48;102226;1302;75750;-24
2022/10/24 07:44:30;;;;;;;11.40;6.00;;;;;;;12.54;78.50;99139.78;101447;1298;1196613;-24
2022/10/24 07:46:57;;;;;;;7.80;5.10;;;;;;;13.03;76.08;99139.61;101957;1294;75469;-24
2022/10/24 07:49:50;;;;;;;8.80;6.10;;;;;;;13.09;75.28;99139.45;102100;1304;61240;-24
2022/10/24 07:52:17;;;;;;;9.80;6.10;;;;;;;12.87;75.50;99136.31;101953;1299;62193;-24
2022/10/24 07:54:44;;;;;;;9.10;6.10;;;;;;;12.75;75.88;99133.39;102176;1298;76063;-24
2022/10/24 07:57:11;;;;;;;7.60;6.30;;;;;;;12.62;76.28;99130.14;101936;1300;76733;-24
2022/10/24 07:59:38;;;;;;;7.10;4.60;;;;;;;12.44;77.48;99133.48;102231;1303;74048;-24
2022/10/24 08:02:12;;;;;;;6.50;4.50;;;;;;;12.89;76.82;99130.56;102281;1299;62503;-24
2022/10/24 08:09:13;;;;;;;9.90;6.30;;;;;;;13.27;75.07;99129.04;102300;1299;71396;-24
2022/10/24 08:11:40;;;;;;;8.20;5.80;;;;;;;13.11;74.94;99133.83;102189;1302;75332;-24
2022/10/24 08:14:07;;;;;;;10.60;5.80;;;;;;;12.80;76.18;99130.70;102106;1297;73942;-24
2022/10/24 08:16:34;;;;;;;9.40;7.20;;;;;;;12.57;77.00;99134.05;102129;1302;61354;-24
2022/10/24 08:19:01;;;;;;;7.90;5.30;;;;;;;12.57;77.69;99134.30;102113;1292;62569;-24
2022/10/24 08:21:30;;;;;;;7.90;5.00;;;;;;;13.07;75.81;99139.96;102073;1299;76146;-24
2022/10/24 08:23:57;;;;;;;8.00;5.40;;;;;;;13.70;74.44;99140.73;102259;1302;74962;-25
2022/10/24 08:26:24;;;;;;;8.90;6.40;;;;;;;13.80;73.42;99146.23;102158;1297;75161;-24
2022/10/24 08:28:51;;;;;;;16.10;7.20;;;;;;;13.70;73.63;99137.40;102097;1297;61576;-24
2022/10/24 08:31:19;;;;;;;10.60;8.00;;;;;;;13.60;74.21;99139.02;102172;1291;62303;-24
2022/10/24 08:33:47;;;;;;;9.90;7.40;;;;;;;13.25;74.55;99136.89;101989;1302;76596;-24
2022/10/24 08:36:21;;;;;;;9.30;7.20;;;;;;;13.13;75.03;99137.86;102089;1300;76774;-24
2022/10/24 08:38:48;;;;;;;5.70;4.70;;;;;;;13.17;75.35;99134.17;102124;1299;74216;-24
2022/10/24 08:41:49;;;;;;;7.60;5.10;;;;;;;13.76;74.07;99133.30;102294;1302;62939;-24
2022/10/24 08:44:26;;;;;;;7.20;5.50;;;;;;;14.37;71.59;99130.58;102202;1299;61954;-24
2022/10/24 08:46:56;;;;;;;7.50;5.30;;;;;;;14.38;71.34;99131.93;102081;1299;76527;-25
2022/10/24 08:49:47;;;;;;;7.00;5.50;;;;;;;14.33;70.91;99130.09;102200;1301;75539;-24
2022/10/24 08:52:44;;;;;;;8.60;6.30;;;;;;;14.37;71.58;99125.17;102148;1302;75210;-24
2022/10/24 08:55:19;;;;;;;9.00;6.10;;;;;;;14.53;72.08;99127.54;102325;1302;62926;-25
2022/10/24 08:58:03;;;;;;;10.70;7.30;;;;;;;14.58;70.65;99127.85;102131;1300;62915;-26
2022/10/24 09:00:35;;;;;;;9.80;6.10;;;;;;;14.46;70.89;99126.98;102089;1299;76295;-25
2022/10/24 09:03:15;;;;;;;8.50;6.40;;;;;;;14.35;71.51;99129.90;102094;1302;76583;-23
2022/10/24 09:05:53;;;;;;;7.30;4.60;;;;;;;14.26;71.83;99131.94;102025;1304;75298;-24
2022/10/24 09:08:26;;;;;;;8.60;5.20;;;;;;;14.83;70.91;99131.59;102135;1301;62647;-25
2022/10/24 09:11:01;;;;;;;10.00;5.70;;;;;;;15.38;68.12;99128.27;102094;1300;62613;-25
2022/10/24 09:13:29;;;;;;;6.60;5.30;;;;;;;15.56;68.21;99123.33;102223;1298;76272;-23
2022/10/24 09:15:56;;;;;;;10.60;6.10;;;;;;;15.60;67.89;99123.44;102147;1299;75442;-25
2022/10/24 09:18:26;;;;;;;8.90;5.90;;;;;;;15.48;67.69;99121.86;102001;1300;74945;-23
2022/10/24 09:20:53;;;;;;;9.20;7.00;;;;;;;15.49;68.34;99121.45;102196;1297;62344;-24
2022/10/24 09:23:21;;;;;;;11.90;6.80;;;;;;;15.28;68.33;99117.23;102097;1299;61699;-24
2022/10/24 09:25:51;;;;;;;8.90;7.10;;;;;;;15.04;69.30;99109.14;102037;1303;76143;-23
2022/10/24 09:28:18;;;;;;;10.40;6.80;;;;;;;15.23;69.19;99113.19;102066;1300;76733;-24
2022/10/24 09:30:46;;;;;;;11.30;6.50;;;;;;;15.21;69.10;99115.70;102035;1299;74242;-24
2022/10/24 09:33:25;;;;;;;9.50;7.40;;;;;;;15.10;69.52;99118.21;102028;1294;62721;-23
2022/10/24 09:35:53;;;;;;;12.10;7.80;;;;;;;14.70;70.48;99112.28;102187;1299;62607;-23
2022/10/24 09:38:38;;;;;;;13.50;7.10;;;;;;;14.40;71.02;99111.59;101993;1297;76154;-23
2022/10/24 09:41:26;;;;;;;9.50;7.50;;;;;;;14.40;71.47;99113.52;102314;1298;75798;-23
2022/10/24 09:43:57;;;;;;;9.80;6.30;;;;;;;14.56;71.07;99108.72;102258;1302;74267;-23
2022/10/24 09:46:28;;;;;;;15.30;7.00;;;;;;;14.78;70.20;99103.84;102062;1299;61902;-23
2022/10/24 09:49:00;;;;;;;9.60;7.10;;;;;;;15.08;69.51;99093.61;101980;1301;62825;-23
2022/10/24 09:51:32;;;;;;;9.90;6.80;;;;;;;15.54;68.41;99100.67;101918;1298;76382;-24
2022/10/24 09:54:27;;;;;;;6.60;5.80;;;;;;;15.99;67.83;99103.07;101983;1305;76674;-24
2022/10/24 09:56:58;;;;;;;9.60;6.10;;;;;;;16.32;65.68;99097.95;102228;1298;75179;-24
2022/10/24 09:59:31;;;;;;;10.80;6.80;;;;;;;16.14;66.04;99099.25;102137;1301;61745;-23
2022/10/24 10:02:26;;;;;;;8.50;6.00;;;;;;;16.46;66.72;99092.11;102313;1299;61787;-24
2022/10/24 10:05:17;;;;;;;9.50;7.00;;;;;;;16.67;65.59;99094.30;102096;1299;76394;-29
2022/10/24 10:07:47;;;;;;;13.00;7.00;;;;;;;16.81;65.28;99090.40;102245;1299;75305;-24
2022/10/24 10:10:17;;;;;;;10.10;6.20;;;;;;;16.98;63.84;99085.81;102162;1301;74134;-24
2022/10/24 10:12:46;;;;;;;8.40;6.40;;;;;;;17.04;64.04;99085.15;102302;1307;63152;-24
2022/10/24 10:15:22;;;;;;;7.80;6.60;;;;;;;16.90;63.47;99082.57;101964;1305;61694;-24
2022/10/24 10:17:50;;;;;;;10.70;6.30;;;;;;;16.90;63.53;99084.15;102006;1303;75128;-24
2022/10/24 10:20:43;;;;;;;9.00;6.50;;;;;;;16.51;63.92;99080.89;101986;1302;76627;-24
2022/10/24 10:23:16;;;;;;;8.00;6.40;;;;;;;16.47;65.16;99079.21;102059;1302;75390;-24
2022/10/24 10:25:43;;;;;;;9.50;6.80;;;;;;;16.81;64.86;99080.87;102128;1302;61564;-24
2022/10/24 10:28:20;;;;;;;10.80;6.90;;;;;;;17.06;64.76;99080.88;102029;1301;61545;-24
2022/10/24 10:30:49;;;;;;;11.20;6.60;;;;;;;17.24;64.06;99076.70;101990;1304;76473;-24
2022/10/24 10:33:26;;;;;;;10.10;6.80;;;;;;;17.24;63.72;99071.77;101921;1298;77329;-24
2022/10/24 10:36:11;;;;;;;11.00;7.20;;;;;;;17.05;64.02;99070.29;101983;1302;73086;-24
2022/10/24 10:38:47;;;;;;;9.50;7.40;;;;;;;16.89;64.14;99067.80;101937;1302;61613;-24
2022/10/24 10:41:45;;;;;;;9.00;7.40;;;;;;;16.86;65.15;99063.44;101944;1301;61453;-24
2022/10/24 10:44:22;;;;;;;9.10;7.40;;;;;;;16.84;65.24;99054.10;101849;1297;75351;-24
2022/10/24 10:46:52;;;;;;;9.70;7.40;;;;;;;16.80;65.06;99053.64;101894;1304;76881;-24
2022/10/24 10:49:34;;;;;;;7.90;5.90;;;;;;;16.59;65.06;99050.27;101921;1302;73437;-24
2022/10/24 10:52:07;;;;;;;13.10;6.40;;;;;;;16.63;65.26;99048.47;101897;1305;61938;-24
2022/10/24 10:55:11;;;;;;;9.60;5.10;;;;;;;16.76;64.97;99046.39;102142;1299;61127;-24
2022/10/24 10:57:57;;;;;;;7.00;5.40;;;;;;;16.70;64.61;99041.73;101900;1292;76123;-24
2022/10/24 11:00:43;;;;;;;7.50;5.90;;;;;;;16.82;63.65;99046.61;101887;1304;76792;-24
2022/10/24 11:03:38;;;;;;;7.60;5.40;;;;;;;16.83;63.99;99042.30;102176;1299;74173;-23
2022/10/24 11:06:27;;;;;;;7.90;6.40;;;;;;;16.67;63.31;99044.04;101907;1295;61552;-23
2022/10/24 11:09:13;;;;;;;9.20;5.80;;;;;;;16.60;63.98;99041.40;102082;1301;62378;-24
2022/10/24 11:11:45;;;;;;;7.80;6.00;;;;;;;16.31;64.43;99042.20;102251;1296;76388;-24
2022/10/24 11:14:27;;;;;;;10.10;6.00;;;;;;;16.09;65.25;99038.59;102017;1302;76789;-24
2022/10/24 11:16:56;;;;;;;7.50;6.50;;;;;;;15.99;66.19;99036.10;101866;1300;74042;-24
2022/10/24 11:19:28;;;;;;;9.50;6.50;;;;;;;15.71;66.57;99038.42;101956;1304;62965;-23
2022/10/24 11:21:56;;;;;;;6.80;5.60;;;;;;;15.73;66.76;99032.19;101971;1299;61542;-23
2022/10/24 11:24:23;;;;;;;9.60;6.80;;;;;;;15.85;66.95;99026.96;102059;1302;76338;-24
2022/10/24 11:26:58;;;;;;;6.50;5.30;;;;;;;15.75;66.61;99028.33;102009;1300;75919;-23
2022/10/24 11:29:32;;;;;;;6.60;5.50;;;;;;;16.00;66.29;99024.38;101918;1301;75185;-24
2022/10/24 11:32:23;;;;;;;6.70;5.30;;;;;;;16.41;64.93;99034.00;102237;1299;62112;-23
2022/10/24 11:35:18;;;;;;;7.60;6.00;;;;;;;16.50;64.86;99030.56;102058;1298;61906;-24
2022/10/24 11:37:45;;;;;;;7.90;5.60;;;;;;;16.40;65.00;99031.77;102212;1299;75437;-24
2022/10/24 11:40:18;;;;;;;7.00;5.30;;;;;;;16.25;64.79;99027.39;102271;1299;75771;-23
2022/10/24 11:43:11;;;;;;;6.40;5.20;;;;;;;16.13;65.03;99026.00;102010;1301;75555;-24
2022/10/24 11:45:57;;;;;;;7.90;5.80;;;;;;;15.90;66.28;99027.05;102199;1302;63082;-24
2022/10/24 11:48:37;;;;;;;6.70;5.40;;;;;;;15.75;66.47;99027.31;101982;1300;62686;-24